sensor_id;sensor_type;location;lat;lon;timestamp;temperature;humidity
41310;DHT22;27057;51.438;-0.010;2022-12-07T00:01:17;6.00;99.90
41310;DHT22;27057;51.438;-0.010;2022-12-07T00:03:46;5.30;99.90
41310;DHT22;27057;51.438;-0.010;2022-12-07T00:06:15;5.90;99.90
41310;DHT22;27057;51.438;-0.010;2022-12-07T00:08:43;5.70;99.90
41310;DHT22;27057;51.438;-0.010;2022-12-07T00:11:16;5.80;99.90
41310;DHT22;27057;51.438;-0.010;2022-12-07T00:13:44;6.30;99.90
41310;DHT22;27057;51.438;-0.010;2022-12-07T00:16:16;5.70;99.90
41310;DHT22;27057;51.438;-0.010;2022-12-07T00:18:45;5.80;99.90
41310;DHT22;27057;51.438;-0.010;2022-12-07T00:21:18;5.80;99.90
41310;DHT22;27057;51.438;-0.010;2022-12-07T00:23:47;5.50;99.90
41310;DHT22;27057;51.438;-0.010;2022-12-07T00:26:18;5.30;99.90
41310;DHT22;27057;51.438;-0.010;2022-12-07T00:28:50;5.50;99.90
41310;DHT22;27057;51.438;-0.010;2022-12-07T00:31:20;5.80;99.90
41310;DHT22;27057;51.438;-0.010;2022-12-07T00:33:48;5.80;99.90
41310;DHT22;27057;51.438;-0.010;2022-12-07T00:36:20;5.50;99.90
41310;DHT22;27057;51.438;-0.010;2022-12-07T00:38:54;5.60;99.90
41310;DHT22;27057;51.438;-0.010;2022-12-07T00:41:24;5.50;99.90
41310;DHT22;27057;51.438;-0.010;2022-12-07T00:43:52;5.60;99.90
41310;DHT22;27057;51.438;-0.010;2022-12-07T00:46:20;5.30;99.90
41310;DHT22;27057;51.438;-0.010;2022-12-07T00:48:48;5.70;99.90
41310;DHT22;27057;51.438;-0.010;2022-12-07T00:51:17;5.60;99.90
41310;DHT22;27057;51.438;-0.010;2022-12-07T00:53:45;5.60;99.90
41310;DHT22;27057;51.438;-0.010;2022-12-07T00:56:15;5.50;99.90
41310;DHT22;27057;51.438;-0.010;2022-12-07T00:58:43;5.60;99.90
41310;DHT22;27057;51.438;-0.010;2022-12-07T01:01:11;5.60;99.90
41310;DHT22;27057;51.438;-0.010;2022-12-07T01:03:38;5.30;99.90
41310;DHT22;27057;51.438;-0.010;2022-12-07T01:06:06;5.70;99.90
41310;DHT22;27057;51.438;-0.010;2022-12-07T01:08:33;5.70;99.90
41310;DHT22;27057;51.438;-0.010;2022-12-07T01:11:03;5.40;99.90
41310;DHT22;27057;51.438;-0.010;2022-12-07T01:13:33;5.80;99.90
41310;DHT22;27057;51.438;-0.010;2022-12-07T01:16:03;5.30;99.90
41310;DHT22;27057;51.438;-0.010;2022-12-07T01:18:32;5.30;99.90
41310;DHT22;27057;51.438;-0.010;2022-12-07T01:21:21;5.80;99.90
41310;DHT22;27057;51.438;-0.010;2022-12-07T01:23:49;5.40;99.90
41310;DHT22;27057;51.438;-0.010;2022-12-07T01:26:19;5.40;99.90
41310;DHT22;27057;51.438;-0.010;2022-12-07T01:28:46;5.50;99.90
41310;DHT22;27057;51.438;-0.010;2022-12-07T01:31:18;5.60;99.90
41310;DHT22;27057;51.438;-0.010;2022-12-07T01:33:52;5.30;99.90
41310;DHT22;27057;51.438;-0.010;2022-12-07T01:36:21;5.30;99.90
41310;DHT22;27057;51.438;-0.010;2022-12-07T01:38:51;6.70;99.90
41310;DHT22;27057;51.438;-0.010;2022-12-07T01:41:20;5.40;99.90
41310;DHT22;27057;51.438;-0.010;2022-12-07T01:44:23;5.40;99.90
41310;DHT22;27057;51.438;-0.010;2022-12-07T01:46:56;5.30;99.90
41310;DHT22;27057;51.438;-0.010;2022-12-07T01:52:17;5.30;99.90
41310;DHT22;27057;51.438;-0.010;2022-12-07T01:54:46;5.20;99.90
41310;DHT22;27057;51.438;-0.010;2022-12-07T01:57:15;5.10;99.90
41310;DHT22;27057;51.438;-0.010;2022-12-07T01:59:45;5.00;99.90
41310;DHT22;27057;51.438;-0.010;2022-12-07T02:02:22;4.90;99.90
41310;DHT22;27057;51.438;-0.010;2022-12-07T02:04:52;5.00;99.90
41310;DHT22;27057;51.438;-0.010;2022-12-07T02:07:21;5.10;99.90
41310;DHT22;27057;51.438;-0.010;2022-12-07T02:09:50;4.90;99.90
41310;DHT22;27057;51.438;-0.010;2022-12-07T02:12:17;4.90;99.90
41310;DHT22;27057;51.438;-0.010;2022-12-07T02:14:45;4.90;99.90
41310;DHT22;27057;51.438;-0.010;2022-12-07T02:28:34;4.70;99.90
41310;DHT22;27057;51.438;-0.010;2022-12-07T02:31:09;4.70;99.90
41310;DHT22;27057;51.438;-0.010;2022-12-07T02:34:14;4.80;99.90
41310;DHT22;27057;51.438;-0.010;2022-12-07T02:36:50;4.50;99.90
41310;DHT22;27057;51.438;-0.010;2022-12-07T02:39:31;4.50;99.90
41310;DHT22;27057;51.438;-0.010;2022-12-07T02:42:09;4.70;99.90
41310;DHT22;27057;51.438;-0.010;2022-12-07T02:44:37;4.70;99.90
41310;DHT22;27057;51.438;-0.010;2022-12-07T02:47:07;4.80;99.90
41310;DHT22;27057;51.438;-0.010;2022-12-07T02:49:37;5.00;99.90
41310;DHT22;27057;51.438;-0.010;2022-12-07T02:52:05;4.80;99.90
41310;DHT22;27057;51.438;-0.010;2022-12-07T02:54:33;4.80;99.90
41310;DHT22;27057;51.438;-0.010;2022-12-07T03:00:08;5.00;99.90
41310;DHT22;27057;51.438;-0.010;2022-12-07T03:11:02;4.80;99.90
41310;DHT22;27057;51.438;-0.010;2022-12-07T03:16:18;5.50;99.90
41310;DHT22;27057;51.438;-0.010;2022-12-07T03:18:59;5.00;99.90
41310;DHT22;27057;51.438;-0.010;2022-12-07T03:21:32;5.10;99.90
41310;DHT22;27057;51.438;-0.010;2022-12-07T03:24:05;5.90;99.90
41310;DHT22;27057;51.438;-0.010;2022-12-07T03:26:40;4.90;99.90
41310;DHT22;27057;51.438;-0.010;2022-12-07T03:29:18;5.10;99.90
41310;DHT22;27057;51.438;-0.010;2022-12-07T03:31:47;5.00;99.90
41310;DHT22;27057;51.438;-0.010;2022-12-07T03:34:21;5.30;99.90
41310;DHT22;27057;51.438;-0.010;2022-12-07T03:36:57;5.00;99.90
41310;DHT22;27057;51.438;-0.010;2022-12-07T03:39:39;5.10;99.90
41310;DHT22;27057;51.438;-0.010;2022-12-07T03:42:10;4.90;99.90
41310;DHT22;27057;51.438;-0.010;2022-12-07T03:44:38;4.90;99.90
41310;DHT22;27057;51.438;-0.010;2022-12-07T03:49:58;5.20;99.90
41310;DHT22;27057;51.438;-0.010;2022-12-07T03:52:31;5.10;99.90
41310;DHT22;27057;51.438;-0.010;2022-12-07T03:55:10;5.00;99.90
41310;DHT22;27057;51.438;-0.010;2022-12-07T03:57:39;5.10;99.90
41310;DHT22;27057;51.438;-0.010;2022-12-07T04:00:09;5.10;99.90
41310;DHT22;27057;51.438;-0.010;2022-12-07T04:02:40;4.90;99.90
41310;DHT22;27057;51.438;-0.010;2022-12-07T04:05:08;4.90;99.90
41310;DHT22;27057;51.438;-0.010;2022-12-07T04:07:36;5.20;99.90
41310;DHT22;27057;51.438;-0.010;2022-12-07T04:10:04;5.00;99.90
41310;DHT22;27057;51.438;-0.010;2022-12-07T04:12:32;5.00;99.90
41310;DHT22;27057;51.438;-0.010;2022-12-07T04:14:59;5.00;99.90
41310;DHT22;27057;51.438;-0.010;2022-12-07T04:17:26;4.70;99.90
41310;DHT22;27057;51.438;-0.010;2022-12-07T04:19:54;5.10;99.90
41310;DHT22;27057;51.438;-0.010;2022-12-07T04:22:21;5.10;99.90
41310;DHT22;27057;51.438;-0.010;2022-12-07T04:24:49;5.30;99.90
41310;DHT22;27057;51.438;-0.010;2022-12-07T04:27:16;5.00;99.90
41310;DHT22;27057;51.438;-0.010;2022-12-07T04:29:44;4.90;99.90
41310;DHT22;27057;51.438;-0.010;2022-12-07T04:32:11;5.30;99.90
41310;DHT22;27057;51.438;-0.010;2022-12-07T04:34:38;5.10;99.90
41310;DHT22;27057;51.438;-0.010;2022-12-07T04:37:05;5.00;99.90
41310;DHT22;27057;51.438;-0.010;2022-12-07T04:39:33;5.00;99.90
41310;DHT22;27057;51.438;-0.010;2022-12-07T04:42:01;5.10;99.90
41310;DHT22;27057;51.438;-0.010;2022-12-07T04:44:29;5.10;99.90
41310;DHT22;27057;51.438;-0.010;2022-12-07T04:46:57;5.40;99.90
41310;DHT22;27057;51.438;-0.010;2022-12-07T04:49:25;5.00;99.90
41310;DHT22;27057;51.438;-0.010;2022-12-07T04:51:52;5.10;99.90
41310;DHT22;27057;51.438;-0.010;2022-12-07T04:54:20;5.00;99.90
41310;DHT22;27057;51.438;-0.010;2022-12-07T04:56:47;5.10;99.90
41310;DHT22;27057;51.438;-0.010;2022-12-07T04:59:15;5.30;99.90
41310;DHT22;27057;51.438;-0.010;2022-12-07T05:01:43;5.10;99.90
41310;DHT22;27057;51.438;-0.010;2022-12-07T05:04:11;5.10;99.90
41310;DHT22;27057;51.438;-0.010;2022-12-07T05:06:38;5.10;99.90
41310;DHT22;27057;51.438;-0.010;2022-12-07T05:09:05;4.90;99.90
41310;DHT22;27057;51.438;-0.010;2022-12-07T05:11:33;5.10;99.90
41310;DHT22;27057;51.438;-0.010;2022-12-07T05:16:36;5.00;99.90
41310;DHT22;27057;51.438;-0.010;2022-12-07T05:19:04;5.00;99.90
41310;DHT22;27057;51.438;-0.010;2022-12-07T05:21:31;5.00;99.90
41310;DHT22;27057;51.438;-0.010;2022-12-07T05:23:59;4.90;99.90
41310;DHT22;27057;51.438;-0.010;2022-12-07T05:26:27;4.90;99.90
41310;DHT22;27057;51.438;-0.010;2022-12-07T05:28:56;4.80;99.90
41310;DHT22;27057;51.438;-0.010;2022-12-07T05:31:24;4.80;99.90
41310;DHT22;27057;51.438;-0.010;2022-12-07T05:33:52;4.90;99.90
41310;DHT22;27057;51.438;-0.010;2022-12-07T05:36:20;4.80;99.90
41310;DHT22;27057;51.438;-0.010;2022-12-07T05:38:47;4.80;99.90
41310;DHT22;27057;51.438;-0.010;2022-12-07T05:41:17;4.90;99.90
41310;DHT22;27057;51.438;-0.010;2022-12-07T05:44:03;4.80;99.90
41310;DHT22;27057;51.438;-0.010;2022-12-07T05:46:31;4.80;99.90
41310;DHT22;27057;51.438;-0.010;2022-12-07T05:48:58;4.90;99.90
41310;DHT22;27057;51.438;-0.010;2022-12-07T05:51:25;5.00;99.90
41310;DHT22;27057;51.438;-0.010;2022-12-07T05:53:53;4.90;99.90
41310;DHT22;27057;51.438;-0.010;2022-12-07T05:56:20;4.90;99.90
41310;DHT22;27057;51.438;-0.010;2022-12-07T05:58:47;4.80;99.90
41310;DHT22;27057;51.438;-0.010;2022-12-07T06:01:33;4.90;99.90
41310;DHT22;27057;51.438;-0.010;2022-12-07T06:04:00;4.90;99.90
41310;DHT22;27057;51.438;-0.010;2022-12-07T06:06:28;4.90;99.90
41310;DHT22;27057;51.438;-0.010;2022-12-07T06:08:55;4.90;99.90
41310;DHT22;27057;51.438;-0.010;2022-12-07T06:11:22;4.90;99.90
41310;DHT22;27057;51.438;-0.010;2022-12-07T06:14:08;4.90;99.90
41310;DHT22;27057;51.438;-0.010;2022-12-07T06:16:35;4.90;99.90
41310;DHT22;27057;51.438;-0.010;2022-12-07T06:19:02;4.80;99.90
41310;DHT22;27057;51.438;-0.010;2022-12-07T06:21:30;5.40;99.90
41310;DHT22;27057;51.438;-0.010;2022-12-07T06:23:57;4.80;99.90
41310;DHT22;27057;51.438;-0.010;2022-12-07T06:26:24;4.70;99.90
41310;DHT22;27057;51.438;-0.010;2022-12-07T06:28:52;4.90;99.90
41310;DHT22;27057;51.438;-0.010;2022-12-07T06:31:19;4.90;99.90
41310;DHT22;27057;51.438;-0.010;2022-12-07T06:33:47;5.10;99.90
41310;DHT22;27057;51.438;-0.010;2022-12-07T06:36:14;4.80;99.90
41310;DHT22;27057;51.438;-0.010;2022-12-07T06:38:41;4.80;99.90
41310;DHT22;27057;51.438;-0.010;2022-12-07T06:41:08;5.00;99.90
41310;DHT22;27057;51.438;-0.010;2022-12-07T06:43:36;4.90;99.90
41310;DHT22;27057;51.438;-0.010;2022-12-07T06:46:03;4.80;99.90
41310;DHT22;27057;51.438;-0.010;2022-12-07T06:48:31;5.00;99.90
41310;DHT22;27057;51.438;-0.010;2022-12-07T06:50:58;4.90;99.90
41310;DHT22;27057;51.438;-0.010;2022-12-07T06:53:25;5.10;99.90
41310;DHT22;27057;51.438;-0.010;2022-12-07T06:55:53;4.90;99.90
41310;DHT22;27057;51.438;-0.010;2022-12-07T06:58:20;5.00;99.90
41310;DHT22;27057;51.438;-0.010;2022-12-07T07:00:48;4.80;99.90
41310;DHT22;27057;51.438;-0.010;2022-12-07T07:03:17;5.50;99.90
41310;DHT22;27057;51.438;-0.010;2022-12-07T07:05:44;5.50;99.90
41310;DHT22;27057;51.438;-0.010;2022-12-07T07:08:12;5.00;99.90
41310;DHT22;27057;51.438;-0.010;2022-12-07T07:10:48;4.70;99.90
41310;DHT22;27057;51.438;-0.010;2022-12-07T07:13:16;5.10;99.90
41310;DHT22;27057;51.438;-0.010;2022-12-07T07:15:43;4.70;99.90
41310;DHT22;27057;51.438;-0.010;2022-12-07T07:18:10;5.20;99.90
41310;DHT22;27057;51.438;-0.010;2022-12-07T07:20:38;4.90;99.90
41310;DHT22;27057;51.438;-0.010;2022-12-07T07:23:06;4.90;99.90
41310;DHT22;27057;51.438;-0.010;2022-12-07T07:25:34;5.30;99.90
41310;DHT22;27057;51.438;-0.010;2022-12-07T07:28:01;4.60;99.90
41310;DHT22;27057;51.438;-0.010;2022-12-07T07:30:29;4.90;99.90
41310;DHT22;27057;51.438;-0.010;2022-12-07T07:32:57;4.70;99.90
41310;DHT22;27057;51.438;-0.010;2022-12-07T07:35:26;4.80;99.90
41310;DHT22;27057;51.438;-0.010;2022-12-07T07:37:53;4.60;99.90
41310;DHT22;27057;51.438;-0.010;2022-12-07T07:40:21;4.70;99.90
41310;DHT22;27057;51.438;-0.010;2022-12-07T07:42:50;4.80;99.90
41310;DHT22;27057;51.438;-0.010;2022-12-07T07:45:19;4.80;99.90
41310;DHT22;27057;51.438;-0.010;2022-12-07T07:47:46;4.90;99.90
41310;DHT22;27057;51.438;-0.010;2022-12-07T07:50:14;4.70;99.90
41310;DHT22;27057;51.438;-0.010;2022-12-07T07:52:41;4.80;99.90
41310;DHT22;27057;51.438;-0.010;2022-12-07T07:55:09;5.00;99.90
41310;DHT22;27057;51.438;-0.010;2022-12-07T07:57:38;5.00;99.90
41310;DHT22;27057;51.438;-0.010;2022-12-07T08:00:08;5.00;99.90
41310;DHT22;27057;51.438;-0.010;2022-12-07T08:02:39;4.90;99.90
41310;DHT22;27057;51.438;-0.010;2022-12-07T08:05:07;4.90;99.90
41310;DHT22;27057;51.438;-0.010;2022-12-07T08:07:35;4.90;99.90
41310;DHT22;27057;51.438;-0.010;2022-12-07T08:10:03;4.90;99.90
41310;DHT22;27057;51.438;-0.010;2022-12-07T08:12:31;4.90;99.90
41310;DHT22;27057;51.438;-0.010;2022-12-07T08:14:58;5.20;99.90
41310;DHT22;27057;51.438;-0.010;2022-12-07T08:17:25;4.60;99.90
41310;DHT22;27057;51.438;-0.010;2022-12-07T08:19:53;4.80;99.90
41310;DHT22;27057;51.438;-0.010;2022-12-07T08:22:20;4.80;99.90
41310;DHT22;27057;51.438;-0.010;2022-12-07T08:24:47;4.90;99.90
41310;DHT22;27057;51.438;-0.010;2022-12-07T08:27:14;5.60;99.90
41310;DHT22;27057;51.438;-0.010;2022-12-07T08:29:42;4.80;99.90
41310;DHT22;27057;51.438;-0.010;2022-12-07T08:32:09;5.60;99.90
41310;DHT22;27057;51.438;-0.010;2022-12-07T08:34:36;4.80;99.90
41310;DHT22;27057;51.438;-0.010;2022-12-07T08:37:04;4.80;99.90
41310;DHT22;27057;51.438;-0.010;2022-12-07T08:39:31;5.00;99.90
41310;DHT22;27057;51.438;-0.010;2022-12-07T08:41:59;4.70;99.90
41310;DHT22;27057;51.438;-0.010;2022-12-07T08:44:26;4.80;99.90
41310;DHT22;27057;51.438;-0.010;2022-12-07T08:46:58;5.00;99.90
41310;DHT22;27057;51.438;-0.010;2022-12-07T08:49:39;5.00;99.90
41310;DHT22;27057;51.438;-0.010;2022-12-07T08:52:08;5.00;99.90
41310;DHT22;27057;51.438;-0.010;2022-12-07T08:54:38;4.80;99.90
41310;DHT22;27057;51.438;-0.010;2022-12-07T08:57:07;5.10;99.90
41310;DHT22;27057;51.438;-0.010;2022-12-07T08:59:35;5.00;99.90
41310;DHT22;27057;51.438;-0.010;2022-12-07T09:02:04;4.90;99.90
41310;DHT22;27057;51.438;-0.010;2022-12-07T09:04:32;4.90;99.90
41310;DHT22;27057;51.438;-0.010;2022-12-07T09:06:59;6.60;99.90
41310;DHT22;27057;51.438;-0.010;2022-12-07T09:09:27;4.80;99.90
41310;DHT22;27057;51.438;-0.010;2022-12-07T09:11:54;4.90;99.90
41310;DHT22;27057;51.438;-0.010;2022-12-07T09:14:22;5.10;99.90
41310;DHT22;27057;51.438;-0.010;2022-12-07T09:16:49;4.90;99.90
41310;DHT22;27057;51.438;-0.010;2022-12-07T09:19:19;5.40;99.90
41310;DHT22;27057;51.438;-0.010;2022-12-07T09:21:46;5.40;99.90
41310;DHT22;27057;51.438;-0.010;2022-12-07T09:24:14;4.80;99.90
41310;DHT22;27057;51.438;-0.010;2022-12-07T09:26:41;5.30;99.90
41310;DHT22;27057;51.438;-0.010;2022-12-07T09:29:08;5.20;99.90
41310;DHT22;27057;51.438;-0.010;2022-12-07T09:31:37;5.20;99.90
41310;DHT22;27057;51.438;-0.010;2022-12-07T09:34:04;5.20;99.90
41310;DHT22;27057;51.438;-0.010;2022-12-07T09:36:33;5.10;99.90
41310;DHT22;27057;51.438;-0.010;2022-12-07T09:39:00;5.10;99.90
41310;DHT22;27057;51.438;-0.010;2022-12-07T09:41:30;5.50;99.90
41310;DHT22;27057;51.438;-0.010;2022-12-07T09:44:12;5.80;99.90
41310;DHT22;27057;51.438;-0.010;2022-12-07T09:46:42;5.20;99.90
41310;DHT22;27057;51.438;-0.010;2022-12-07T09:49:16;5.20;99.90
41310;DHT22;27057;51.438;-0.010;2022-12-07T09:51:44;5.30;99.90
41310;DHT22;27057;51.438;-0.010;2022-12-07T09:54:13;5.30;99.90
41310;DHT22;27057;51.438;-0.010;2022-12-07T09:56:41;5.40;99.90
41310;DHT22;27057;51.438;-0.010;2022-12-07T09:59:15;5.20;99.90
41310;DHT22;27057;51.438;-0.010;2022-12-07T10:01:45;5.20;99.90
41310;DHT22;27057;51.438;-0.010;2022-12-07T10:04:24;5.50;99.90
41310;DHT22;27057;51.438;-0.010;2022-12-07T10:06:52;5.40;99.90
41310;DHT22;27057;51.438;-0.010;2022-12-07T10:09:21;5.30;99.90
41310;DHT22;27057;51.438;-0.010;2022-12-07T10:12:06;5.20;99.90
41310;DHT22;27057;51.438;-0.010;2022-12-07T10:14:38;5.20;99.90
41310;DHT22;27057;51.438;-0.010;2022-12-07T10:17:40;5.30;99.90
41310;DHT22;27057;51.438;-0.010;2022-12-07T10:20:24;5.20;99.90
41310;DHT22;27057;51.438;-0.010;2022-12-07T10:25:33;5.00;99.90
41310;DHT22;27057;51.438;-0.010;2022-12-07T10:28:15;5.00;99.90
41310;DHT22;27057;51.438;-0.010;2022-12-07T10:30:52;5.00;99.90
41310;DHT22;27057;51.438;-0.010;2022-12-07T10:33:37;5.10;99.90
41310;DHT22;27057;51.438;-0.010;2022-12-07T10:38:51;5.30;99.90
41310;DHT22;27057;51.438;-0.010;2022-12-07T10:41:19;5.10;99.90
41310;DHT22;27057;51.438;-0.010;2022-12-07T10:43:52;5.60;99.90
41310;DHT22;27057;51.438;-0.010;2022-12-07T10:52:31;5.70;99.90
41310;DHT22;27057;51.438;-0.010;2022-12-07T10:55:19;5.60;99.90
41310;DHT22;27057;51.438;-0.010;2022-12-07T10:57:56;5.70;99.90
41310;DHT22;27057;51.438;-0.010;2022-12-07T11:00:37;5.90;99.90
41310;DHT22;27057;51.438;-0.010;2022-12-07T11:06:07;5.80;99.90
41310;DHT22;27057;51.438;-0.010;2022-12-07T11:09:16;6.10;99.90
41310;DHT22;27057;51.438;-0.010;2022-12-07T11:31:33;6.00;99.90
41310;DHT22;27057;51.438;-0.010;2022-12-07T11:36:50;6.20;99.90
41310;DHT22;27057;51.438;-0.010;2022-12-07T11:41:49;6.20;99.90
41310;DHT22;27057;51.438;-0.010;2022-12-07T11:52:27;6.20;99.90
41310;DHT22;27057;51.438;-0.010;2022-12-07T11:54:57;6.20;99.90
41310;DHT22;27057;51.438;-0.010;2022-12-07T11:57:37;6.30;99.90
41310;DHT22;27057;51.438;-0.010;2022-12-07T12:00:15;6.60;99.90
41310;DHT22;27057;51.438;-0.010;2022-12-07T12:02:58;6.20;99.90
41310;DHT22;27057;51.438;-0.010;2022-12-07T12:05:28;6.30;99.90
41310;DHT22;27057;51.438;-0.010;2022-12-07T12:11:25;6.20;99.90
41310;DHT22;27057;51.438;-0.010;2022-12-07T12:17:09;6.30;99.90
41310;DHT22;27057;51.438;-0.010;2022-12-07T12:20:18;6.40;99.90
41310;DHT22;27057;51.438;-0.010;2022-12-07T12:23:13;6.40;99.90
41310;DHT22;27057;51.438;-0.010;2022-12-07T12:33:33;6.80;99.90
41310;DHT22;27057;51.438;-0.010;2022-12-07T12:47:04;8.10;99.90
41310;DHT22;27057;51.438;-0.010;2022-12-07T12:55:17;9.00;99.90
41310;DHT22;27057;51.438;-0.010;2022-12-07T13:00:48;9.60;99.90
41310;DHT22;27057;51.438;-0.010;2022-12-07T13:03:35;9.80;99.90
41310;DHT22;27057;51.438;-0.010;2022-12-07T13:08:53;9.80;99.90
41310;DHT22;27057;51.438;-0.010;2022-12-07T13:11:36;9.80;99.90
41310;DHT22;27057;51.438;-0.010;2022-12-07T13:17:11;10.00;99.90
41310;DHT22;27057;51.438;-0.010;2022-12-07T13:25:23;10.80;99.90
41310;DHT22;27057;51.438;-0.010;2022-12-07T13:28:07;11.00;99.90
41310;DHT22;27057;51.438;-0.010;2022-12-07T13:31:00;12.00;99.90
41310;DHT22;27057;51.438;-0.010;2022-12-07T13:33:29;11.30;99.90
41310;DHT22;27057;51.438;-0.010;2022-12-07T13:35:57;11.70;99.90
41310;DHT22;27057;51.438;-0.010;2022-12-07T13:38:32;11.50;99.90
41310;DHT22;27057;51.438;-0.010;2022-12-07T13:41:15;11.70;99.90
41310;DHT22;27057;51.438;-0.010;2022-12-07T13:44:33;11.80;99.90
41310;DHT22;27057;51.438;-0.010;2022-12-07T13:46:48;11.80;99.90
41310;DHT22;27057;51.438;-0.010;2022-12-07T13:49:29;12.40;99.90
41310;DHT22;27057;51.438;-0.010;2022-12-07T13:52:30;12.10;99.90
41310;DHT22;27057;51.438;-0.010;2022-12-07T13:55:00;11.50;99.90
41310;DHT22;27057;51.438;-0.010;2022-12-07T13:57:30;11.20;99.90
41310;DHT22;27057;51.438;-0.010;2022-12-07T13:59:58;11.30;99.90
41310;DHT22;27057;51.438;-0.010;2022-12-07T14:02:34;10.00;99.90
41310;DHT22;27057;51.438;-0.010;2022-12-07T14:15:58;9.30;99.90
41310;DHT22;27057;51.438;-0.010;2022-12-07T14:18:46;9.20;99.90
41310;DHT22;27057;51.438;-0.010;2022-12-07T14:23:40;9.30;99.90
41310;DHT22;27057;51.438;-0.010;2022-12-07T14:28:41;8.80;99.90
41310;DHT22;27057;51.438;-0.010;2022-12-07T14:31:16;8.50;99.90
41310;DHT22;27057;51.438;-0.010;2022-12-07T14:33:59;8.50;99.90
41310;DHT22;27057;51.438;-0.010;2022-12-07T14:36:26;8.40;99.90
41310;DHT22;27057;51.438;-0.010;2022-12-07T14:38:54;8.10;99.90
41310;DHT22;27057;51.438;-0.010;2022-12-07T14:41:23;8.00;99.90
41310;DHT22;27057;51.438;-0.010;2022-12-07T14:44:11;8.00;99.90
41310;DHT22;27057;51.438;-0.010;2022-12-07T14:46:59;8.20;99.90
41310;DHT22;27057;51.438;-0.010;2022-12-07T14:49:46;8.00;99.90
41310;DHT22;27057;51.438;-0.010;2022-12-07T14:52:20;7.90;99.90
41310;DHT22;27057;51.438;-0.010;2022-12-07T14:55:14;7.70;99.90
41310;DHT22;27057;51.438;-0.010;2022-12-07T14:57:43;7.70;99.90
41310;DHT22;27057;51.438;-0.010;2022-12-07T15:00:14;7.50;99.90
41310;DHT22;27057;51.438;-0.010;2022-12-07T15:02:42;7.60;99.90
41310;DHT22;27057;51.438;-0.010;2022-12-07T15:05:10;7.90;99.90
41310;DHT22;27057;51.438;-0.010;2022-12-07T15:07:43;7.70;99.90
41310;DHT22;27057;51.438;-0.010;2022-12-07T15:10:20;7.70;99.90
41310;DHT22;27057;51.438;-0.010;2022-12-07T15:12:50;7.50;99.90
41310;DHT22;27057;51.438;-0.010;2022-12-07T15:15:18;7.30;99.90
41310;DHT22;27057;51.438;-0.010;2022-12-07T15:17:45;7.10;99.90
41310;DHT22;27057;51.438;-0.010;2022-12-07T15:20:14;7.20;99.90
41310;DHT22;27057;51.438;-0.010;2022-12-07T15:22:43;7.20;99.90
41310;DHT22;27057;51.438;-0.010;2022-12-07T15:25:13;7.50;99.90
41310;DHT22;27057;51.438;-0.010;2022-12-07T15:27:41;6.50;99.90
41310;DHT22;27057;51.438;-0.010;2022-12-07T15:30:09;6.30;99.90
41310;DHT22;27057;51.438;-0.010;2022-12-07T15:32:36;6.50;99.90
41310;DHT22;27057;51.438;-0.010;2022-12-07T15:35:04;6.20;99.90
41310;DHT22;27057;51.438;-0.010;2022-12-07T15:37:31;6.20;99.90
41310;DHT22;27057;51.438;-0.010;2022-12-07T15:39:59;6.10;99.90
41310;DHT22;27057;51.438;-0.010;2022-12-07T15:42:33;6.30;99.90
41310;DHT22;27057;51.438;-0.010;2022-12-07T15:45:02;6.00;99.90
41310;DHT22;27057;51.438;-0.010;2022-12-07T15:47:39;6.10;99.90
41310;DHT22;27057;51.438;-0.010;2022-12-07T15:50:26;6.00;99.90
41310;DHT22;27057;51.438;-0.010;2022-12-07T15:52:53;6.30;99.90
41310;DHT22;27057;51.438;-0.010;2022-12-07T15:55:21;6.00;99.90
41310;DHT22;27057;51.438;-0.010;2022-12-07T15:57:48;6.00;99.90
41310;DHT22;27057;51.438;-0.010;2022-12-07T16:00:16;5.90;99.90
41310;DHT22;27057;51.438;-0.010;2022-12-07T16:02:44;5.80;99.90
41310;DHT22;27057;51.438;-0.010;2022-12-07T16:05:11;5.70;99.90
41310;DHT22;27057;51.438;-0.010;2022-12-07T16:07:38;5.70;99.90
41310;DHT22;27057;51.438;-0.010;2022-12-07T16:10:06;5.60;99.90
41310;DHT22;27057;51.438;-0.010;2022-12-07T16:12:34;5.70;99.90
41310;DHT22;27057;51.438;-0.010;2022-12-07T16:15:01;5.60;99.90
41310;DHT22;27057;51.438;-0.010;2022-12-07T16:17:29;5.50;99.90
41310;DHT22;27057;51.438;-0.010;2022-12-07T16:19:56;5.60;99.90
41310;DHT22;27057;51.438;-0.010;2022-12-07T16:22:24;5.50;99.90
41310;DHT22;27057;51.438;-0.010;2022-12-07T16:24:51;5.60;99.90
41310;DHT22;27057;51.438;-0.010;2022-12-07T16:27:19;5.50;99.90
41310;DHT22;27057;51.438;-0.010;2022-12-07T16:29:46;5.70;99.90
41310;DHT22;27057;51.438;-0.010;2022-12-07T16:32:13;5.40;99.90
41310;DHT22;27057;51.438;-0.010;2022-12-07T16:34:40;5.40;99.90
41310;DHT22;27057;51.438;-0.010;2022-12-07T16:37:08;6.00;99.90
41310;DHT22;27057;51.438;-0.010;2022-12-07T16:39:35;5.10;99.90
41310;DHT22;27057;51.438;-0.010;2022-12-07T16:42:02;5.60;99.90
41310;DHT22;27057;51.438;-0.010;2022-12-07T16:44:30;5.10;99.90
41310;DHT22;27057;51.438;-0.010;2022-12-07T16:46:58;5.20;99.90
41310;DHT22;27057;51.438;-0.010;2022-12-07T16:49:27;5.30;99.90
41310;DHT22;27057;51.438;-0.010;2022-12-07T16:51:54;4.90;99.90
41310;DHT22;27057;51.438;-0.010;2022-12-07T16:54:42;4.90;99.90
41310;DHT22;27057;51.438;-0.010;2022-12-07T16:57:10;5.00;99.90
41310;DHT22;27057;51.438;-0.010;2022-12-07T16:59:45;5.70;99.90
41310;DHT22;27057;51.438;-0.010;2022-12-07T17:02:12;4.70;99.90
41310;DHT22;27057;51.438;-0.010;2022-12-07T17:04:39;4.80;99.90
41310;DHT22;27057;51.438;-0.010;2022-12-07T17:07:09;4.80;99.90
41310;DHT22;27057;51.438;-0.010;2022-12-07T17:09:39;4.90;99.90
41310;DHT22;27057;51.438;-0.010;2022-12-07T17:12:07;4.70;99.90
41310;DHT22;27057;51.438;-0.010;2022-12-07T17:14:35;4.70;99.90
41310;DHT22;27057;51.438;-0.010;2022-12-07T17:17:21;4.80;99.90
41310;DHT22;27057;51.438;-0.010;2022-12-07T17:19:48;5.40;99.90
41310;DHT22;27057;51.438;-0.010;2022-12-07T17:22:15;4.90;99.90
41310;DHT22;27057;51.438;-0.010;2022-12-07T17:24:43;4.80;99.90
41310;DHT22;27057;51.438;-0.010;2022-12-07T17:27:10;4.60;99.90
41310;DHT22;27057;51.438;-0.010;2022-12-07T17:29:37;4.60;99.90
41310;DHT22;27057;51.438;-0.010;2022-12-07T17:32:05;4.70;99.90
41310;DHT22;27057;51.438;-0.010;2022-12-07T17:34:32;4.50;99.90
41310;DHT22;27057;51.438;-0.010;2022-12-07T17:39:27;4.60;99.90
41310;DHT22;27057;51.438;-0.010;2022-12-07T17:41:55;4.40;99.90
41310;DHT22;27057;51.438;-0.010;2022-12-07T17:44:41;4.50;99.90
41310;DHT22;27057;51.438;-0.010;2022-12-07T17:47:09;4.50;99.90
41310;DHT22;27057;51.438;-0.010;2022-12-07T17:49:37;4.10;99.90
41310;DHT22;27057;51.438;-0.010;2022-12-07T17:52:04;4.40;99.90
41310;DHT22;27057;51.438;-0.010;2022-12-07T17:54:50;4.30;99.90
41310;DHT22;27057;51.438;-0.010;2022-12-07T17:57:20;4.40;99.90
41310;DHT22;27057;51.438;-0.010;2022-12-07T17:59:47;4.20;99.90
41310;DHT22;27057;51.438;-0.010;2022-12-07T18:02:15;4.00;99.90
41310;DHT22;27057;51.438;-0.010;2022-12-07T18:04:43;4.00;99.90
41310;DHT22;27057;51.438;-0.010;2022-12-07T18:07:11;4.10;99.90
41310;DHT22;27057;51.438;-0.010;2022-12-07T18:09:39;3.70;99.90
41310;DHT22;27057;51.438;-0.010;2022-12-07T18:12:08;4.00;99.90
41310;DHT22;27057;51.438;-0.010;2022-12-07T18:14:35;4.00;99.90
41310;DHT22;27057;51.438;-0.010;2022-12-07T18:17:03;4.00;99.90
41310;DHT22;27057;51.438;-0.010;2022-12-07T18:19:30;4.00;99.90